EuroAirport Basel-Mulhouse-Freiburg Airport

LFSB · Haut-Rhin, Grand Est, Frankreich

METAR-Geschichte LFSB · Flughafen Basel-Mülhausen

Unten siehst du die METARs der letzten paar Tage. Wähle ein Jahr, um ältere METARs ab dem Jahr 2007 zu durchsuchen.

27. November 2022

Uhrzeit Code Wetter Temp. Sichtweite Wolkendecke Wind METAR/SPECI
13:00
V
8 °C 10 km+ - 110° 110° 10 kt METAR LFSB 271200Z AUTO 11010KT CAVOK 08/03 Q1023 NOSIG
12:30
V
8 °C 10 km+ - 120° 120° 10 kt METAR LFSB 271130Z AUTO 12010KT CAVOK 08/03 Q1024 NOSIG
12:00
V
7 °C 10 km+ - 110° 110° 10 kt METAR LFSB 271100Z AUTO 11010KT CAVOK 07/03 Q1024 NOSIG
11:30
V
7 °C 10 km+ - 120° 120° 11 kt METAR LFSB 271030Z AUTO 12011KT CAVOK 07/03 Q1025 NOSIG
11:00
V
6 °C 10 km+ - 110° 110° 9 kt METAR LFSB 271000Z AUTO 11009KT CAVOK 06/03 Q1025 NOSIG
10:30
V
6 °C 10 km+ - 130° 130° 9 kt METAR LFSB 270930Z AUTO 13009KT 100V160 CAVOK 06/03 Q1025 NOSIG
10:00
V
6 °C 10 km+ - 130° 130° 8 kt METAR LFSB 270900Z AUTO 13008KT CAVOK 06/03 Q1026 NOSIG
09:30
V
5 °C 10 km+ - 140° 140° 5 kt METAR LFSB 270830Z AUTO 14005KT CAVOK 05/03 Q1026 NOSIG
09:00
V
4 °C 10 km+ - 140° 140° 5 kt METAR LFSB 270800Z AUTO 14005KT CAVOK 04/03 Q1026 NOSIG
08:30
V
4 °C 10 km+ - 130° 130° 8 kt METAR LFSB 270730Z AUTO 13008KT CAVOK 04/03 Q1026 NOSIG
08:00
V
3 °C 10 km+ - Var Var 3 kt METAR LFSB 270700Z AUTO VRB03KT CAVOK 03/02 Q1026 NOSIG
07:30
V
3 °C 10 km+ 14.000 ft 130° 130° 7 kt METAR LFSB 270630Z AUTO 13007KT 9999 FEW012 BKN140 OVC170 03/03 Q1026 NOSIG
07:00
V
3 °C 10 km+ 15.000 ft 130° 130° 6 kt METAR LFSB 270600Z AUTO 13006KT 9999 SCT012 BKN150 OVC170 03/03 Q1027 TEMPO 0800 BCFG BKN001
06:30
V
3 °C 10 km+ 17.000 ft 130° 130° 5 kt METAR LFSB 270530Z AUTO 13005KT 100V190 9999 FEW012 OVC170 03/03 Q1027 TEMPO 0800 BCFG BKN001
06:00
V
2 °C 8 km - Var 000° 0 kt METAR LFSB 270500Z AUTO 00000KT 8000 NSC 02/02 Q1027 TEMPO 0800 BCFG BKN001
05:30
M
2 °C 6 km - 250° 250° 2 kt METAR LFSB 270430Z AUTO 25002KT 6000 NSC 02/02 Q1027 TEMPO 3000 BR VV///
05:00
L
2 °C 2,9 km - Var Var 2 kt METAR LFSB 270400Z AUTO VRB02KT 2900 BR VV/// 02/02 Q1027 TEMPO 3000 BR
04:30
L
1 °C 500 m - Var Var 2 kt METAR LFSB 270330Z AUTO VRB02KT 0700 0500 R15/1000U R33/1000U FG VV/// 01/01 Q1027 TEMPO 3000 BR
04:00
L
2 °C 300 m - Var 000° 0 kt METAR LFSB 270300Z AUTO 00000KT 0300 R15/0400D R33/0350N FG VV/// 02/02 Q1027 TEMPO 3000 BR
03:30
L
2 °C 500 m - Var Var 2 kt METAR LFSB 270230Z AUTO VRB02KT 0650 0500 R15/0600D R33/0750D FG VV/// 02/02 Q1027 TEMPO 3000 BR
03:00
L
3 °C 550 m - Var Var 2 kt METAR LFSB 270200Z AUTO VRB02KT 1300 0550 R15/0650U R33/P2000 BCFG VV/// 03/03 Q1028 TEMPO 3000 BR
02:30
L
3 °C 750 m - 110° 110° 5 kt METAR LFSB 270130Z AUTO 11005KT 080V150 4300 0750 R15/1100D R33/P2000 BCFG VV/// 03/03 Q1028 TEMPO 2000 BR
02:00
L
3 °C 600 m - Var Var 2 kt METAR LFSB 270100Z AUTO VRB02KT 0800 0600 R15/0800N R33/0900U FG VV/// 03/03 Q1028 TEMPO 2000 BR
01:30
L
3 °C 550 m - Var Var 3 kt METAR LFSB 270030Z AUTO VRB03KT 0550 R15/0650N R33/0800U FG VV/// 03/03 Q1029 TEMPO 2000 BR
01:00
L
3 °C 600 m - 100° 100° 4 kt METAR LFSB 270000Z AUTO 10004KT 0700 0600 R15/0800U R33/0750D FG VV/// 03/03 Q1029 TEMPO 2000 BR
00:30
L
3 °C 500 m - 090° 090° 4 kt METAR LFSB 262330Z AUTO 09004KT 0600 0500 R15/0750N R33/0600N FG VV/// 03/03 Q1029 TEMPO 2000 BR
00:00
L
4 °C 550 m - 080° 080° 3 kt METAR LFSB 262300Z AUTO 08003KT 060V130 0650 0550 R15/0750D R33/0650N FG VV/// 04/04 Q1030 TEMPO 2000 BR

26. November 2022

Uhrzeit Code Wetter Temp. Sichtweite Wolkendecke Wind METAR/SPECI
23:30
L
4 °C 650 m - 040° 040° 3 kt METAR LFSB 262230Z AUTO 04003KT 010V080 0750 0650 R15/0900D R33/0900U FG VV/// 04/04 Q1030 TEMPO 2000 BR
23:00
L
4 °C 700 m - 040° 040° 3 kt METAR LFSB 262200Z AUTO 04003KT 010V090 0900 0700 R15/1800D R33/0900N FG VV/// 04/04 Q1030 TEMPO 2000 BR
22:30
L
5 °C 1 km - Var Var 3 kt METAR LFSB 262130Z AUTO VRB03KT 1000 R15/1200U R33/1200D BCFG VV/// 05/05 Q1030 TEMPO 2000 BR
22:00
L
5 °C 750 m - Var Var 3 kt METAR LFSB 262100Z AUTO VRB03KT 0800 0750 R15/1300D R33/0800U FG VV/// 05/05 Q1030 TEMPO 2000 BR
21:30
L
5 °C 650 m - Var Var 3 kt METAR LFSB 262030Z AUTO VRB03KT 0800 0650 R15/0700D R33/1100U FG VV/// 05/05 Q1030 TEMPO 2000 BR
21:00
L
5 °C 600 m - Var Var 2 kt METAR LFSB 262000Z AUTO VRB02KT 0600 R15/0700N R33/0800N FG VV/// 05/05 Q1030 TEMPO 2000 BR
20:30
L
5 °C 600 m - Var Var 3 kt METAR LFSB 261930Z AUTO VRB03KT 0600 R15/0650D R33/0900U FG VV/// 05/05 Q1030 TEMPO 2000 BR
20:00
L
5 °C 450 m - 320° 320° 5 kt METAR LFSB 261900Z AUTO 32005KT 0500 0450 R15/0600N R33/0600U FG VV/// 05/05 Q1030 TEMPO 2000 BR
19:30
L
5 °C 400 m - 360° 360° 4 kt METAR LFSB 261830Z AUTO 36004KT 320V030 0400 R15/0500D R33/0450N FG VV/// 05/05 Q1030 TEMPO 2000 BR
19:00
L
5 °C 400 m - 330° 330° 7 kt METAR LFSB 261800Z AUTO 33007KT 0400 R15/0450D R33/0500N FG VV/// 05/05 Q1030 TEMPO 2000 BR
18:30
L
5 °C 350 m - 320° 320° 6 kt METAR LFSB 261730Z AUTO 32006KT 0400 0350 R15/0500N R33/0450N FG VV/// 05/05 Q1030 TEMPO 2000 BR
18:00
L
5 °C 600 m - 330° 330° 4 kt METAR LFSB 261700Z AUTO 33004KT 2100 0600 R15/0750D R33/1400D BCFG VV/// 05/05 Q1030 BECMG 0300 FG
17:30
M
4 °C 6 km - 330° 330° 5 kt METAR LFSB 261630Z AUTO 33005KT 6000 NSC 04/04 Q1030 BECMG 0300 FG VV///
17:00
V
6 °C 10 km+ - 360° 360° 4 kt METAR LFSB 261600Z AUTO 36004KT CAVOK 06/06 Q1030 BECMG 0300 FG VV///
16:30
V
6 °C 10 km+ - 330° 330° 4 kt METAR LFSB 261530Z AUTO 33004KT CAVOK 06/05 Q1030 BECMG 0300 FG VV///
16:00
V
8 °C 10 km+ - 320° 320° 6 kt METAR LFSB 261500Z AUTO 32006KT CAVOK 08/06 Q1030 TEMPO BKN003
15:30
V
9 °C 10 km+ - 320° 320° 3 kt METAR LFSB 261430Z AUTO 32003KT 300V360 CAVOK 09/06 Q1030 TEMPO BKN003
15:00
V
9 °C 10 km+ - Var Var 3 kt METAR LFSB 261400Z AUTO VRB03KT CAVOK 09/06 Q1030 NOSIG
14:30
V
9 °C 10 km+ - Var Var 2 kt METAR LFSB 261330Z AUTO VRB02KT CAVOK 09/06 Q1031 NOSIG
14:00
V
8 °C 10 km+ - Var Var 2 kt METAR LFSB 261300Z AUTO VRB02KT CAVOK 08/06 Q1031 TEMPO 4000 BR BKN002
13:30
V
8 °C 10 km+ - Var Var 1 kt METAR LFSB 261230Z AUTO VRB01KT 9999 FEW004 08/06 Q1031 TEMPO 4000 BR BKN002
13:00
L
7 °C 6 km 200 ft Var Var 2 kt METAR LFSB 261200Z AUTO VRB02KT 6000 BKN002 BKN006 07/06 Q1031 TEMPO BKN008
12:30
L
6 °C 5 km 200 ft Var Var 2 kt METAR LFSB 261130Z AUTO VRB02KT 5000 BR BKN002 06/06 Q1031 TEMPO FEW010
12:00
L
6 °C 4,5 km - Var Var 3 kt METAR LFSB 261100Z AUTO VRB03KT 4500 BR VV/// 06/05 Q1031 BECMG 6000 NSW FEW010
11:30
L
5 °C 800 m - 190° 190° 4 kt METAR LFSB 261030Z AUTO 19004KT 160V230 3200 0800 R15/1200U R33/P2000 BCFG VV/// 05/05 Q1032 BECMG 6000 NSW FEW010
11:00
L
5 °C 500 m - 190° 190° 3 kt METAR LFSB 261000Z AUTO 19003KT 110V220 0650 0500 R15/1100U R33/0800U FG VV/// 05/05 Q1032 BECMG 6000 NSW FEW010
10:30
L
5 °C 500 m - 150° 150° 4 kt METAR LFSB 260930Z AUTO 15004KT 110V190 0550 0500 R15/1100D R33/0800N FG VV/// 05/05 Q1032 TEMPO BKN010 BECMG 9999 NSW
10:00
L
5 °C 450 m - 160° 160° 4 kt METAR LFSB 260900Z AUTO 16004KT 130V190 0500 0450 R15/0750N R33/0650N FG VV/// 05/05 Q1032 TEMPO BKN010 BECMG 9999 NSW
09:30
L
4 °C 400 m - 150° 150° 6 kt METAR LFSB 260830Z AUTO 15006KT 0500 0400 R15/1000D R33/0500N FG VV/// 04/04 Q1032 TEMPO BKN010 BECMG 9999 NSW
09:00
V
5 °C 10 km+ - 160° 160° 4 kt METAR LFSB 260800Z AUTO 16004KT 9999 FEW005 05/04 Q1031 TEMPO BKN010
08:30
M
5 °C 10 km+ 1.300 ft 160° 160° 3 kt METAR LFSB 260730Z AUTO 16003KT 9999 FEW006 BKN013 05/05 Q1031 TEMPO 4000 BR VV///
08:00
M
3 °C 5 km 1.300 ft 160° 160° 3 kt METAR LFSB 260700Z AUTO 16003KT 5000 BR FEW004 BKN013 03/03 Q1031 TEMPO 0400 FG VV///
07:30
M
4 °C 7 km 4.700 ft 010° 010° 3 kt METAR LFSB 260630Z AUTO 01003KT 7000 SCT013 BKN047 04/04 Q1031 TEMPO 0400 FG VV///
07:00
V
5 °C 10 km+ 4.800 ft Var Var 2 kt METAR LFSB 260600Z AUTO VRB02KT 9999 FEW007 BKN048 05/04 Q1030 TEMPO 0400 FG VV///
06:30
V
4 °C 10 km+ 4.600 ft 220° 220° 2 kt METAR LFSB 260530Z AUTO 22002KT 9999 BKN046 04/04 Q1030 TEMPO 0400 FG VV///
06:00
V
4 °C 10 km+ 4.700 ft Var Var 2 kt METAR LFSB 260500Z AUTO VRB02KT 9999 FEW013 BKN047 04/04 Q1030 TEMPO 0400 FG VV///
05:30
V
4 °C 10 km+ 4.900 ft 190° 190° 4 kt METAR LFSB 260430Z AUTO 19004KT 9999 SCT013 BKN049 04/04 Q1030 TEMPO 0400 FG VV///
05:00
V
4 °C 8 km 4.100 ft 200° 200° 3 kt METAR LFSB 260400Z AUTO 20003KT 140V240 8000 SCT009 BKN041 04/03 Q1029 TEMPO 0400 FG VV///
04:30
I
4 °C 9 km 900 ft 130° 130° 5 kt METAR LFSB 260330Z AUTO 13005KT 9000 BKN009 OVC043 04/04 Q1029 TEMPO 0400 FG VV///
04:00
I
4 °C 10 km+ 900 ft 120° 120° 5 kt METAR LFSB 260300Z AUTO 12005KT 050V150 9999 BKN009 BKN046 BKN052 04/04 Q1030 TEMPO 0400 FG VV///
03:30
I
3 °C 10 km+ 900 ft Var Var 2 kt METAR LFSB 260230Z AUTO VRB02KT 9999 BKN009/// BKN033/// BKN050/// ///TCU 03/03 Q1029 TEMPO 0400 FG VV///
03:00
I
2 °C 3,5 km 6.000 ft Var Var 1 kt METAR LFSB 260200Z AUTO VRB01KT 3500 BR FEW009 SCT013 BKN060 02/02 Q1029 TEMPO 0400 FG VV///
02:30
L
2 °C 750 m - Var Var 2 kt METAR LFSB 260130Z AUTO VRB02KT 1600 0750 R15/1500U R33/1000D BCFG FEW001 SCT074 02/02 Q1029 TEMPO 0400 FG VV///
02:00
I
3 °C 3 km - Var Var 2 kt METAR LFSB 260100Z AUTO VRB02KT 3000 R33/1000U BR FEW002 03/03 Q1028 BECMG 9000 NSW
01:30
I
3 °C 2,1 km - Var Var 2 kt METAR LFSB 260030Z AUTO VRB02KT 5000 2100 BR NSC 03/03 Q1028 NOSIG
01:00
L
3 °C 1,2 km - Var 000° 0 kt METAR LFSB 260000Z AUTO 00000KT 6000 1200 R15/1100D R33/P2000 FEW011 SCT056 03/03 Q1028 NOSIG
00:30
M
4 °C 5 km 5.800 ft 160° 160° 4 kt METAR LFSB 252330Z AUTO 16004KT 140V200 5000 R33/1100U BR FEW011 BKN058 04/04 Q1027 TEMPO FEW020TCU
00:00
I
4 °C 2,8 km - 130° 130° 2 kt METAR LFSB 252300Z AUTO 13002KT 9000 2800 NSC 04/04 Q1027 TEMPO 3000 BR FEW020TCU

25. November 2022

Uhrzeit Code Wetter Temp. Sichtweite Wolkendecke Wind METAR/SPECI
23:30
V
4 °C 10 km+ - Var Var 1 kt METAR LFSB 252230Z AUTO VRB01KT CAVOK 04/04 Q1027 TEMPO 3000 BR FEW020TCU
23:00
V
5 °C 10 km+ - 160° 160° 3 kt METAR LFSB 252200Z AUTO 16003KT CAVOK 05/04 Q1027 TEMPO 3000 BR FEW020TCU
22:30
V
6 °C 10 km+ - 160° 160° 4 kt METAR LFSB 252130Z AUTO 16004KT 120V190 9999 FEW044 06/05 Q1027 TEMPO 3000 BR FEW020TCU
22:00
V
6 °C 10 km+ - Var Var 3 kt METAR LFSB 252100Z AUTO VRB03KT CAVOK 06/06 Q1027 TEMPO FEW020TCU
21:30
V
8 °C 10 km+ - 270° 270° 9 kt METAR LFSB 252030Z AUTO 27009KT 9999 FEW013 SCT250 08/06 Q1026 TEMPO FEW020TCU
21:00
V
8 °C 10 km+ 4.400 ft 260° 260° 9 kt METAR LFSB 252000Z AUTO 26009KT 9999 BKN044 BKN052 BKN230 08/06 Q1026 TEMPO FEW020TCU
20:30
V
8 °C 10 km+ 4.300 ft 260° 260° 6 kt METAR LFSB 251930Z AUTO 26006KT 9999 BKN043/// OVC052/// //////TCU 08/06 Q1025 NOSIG
20:00
V
9 °C 10 km+ 4.200 ft 260° 260° 9 kt METAR LFSB 251900Z AUTO 26009KT 9999 -RA BKN042/// OVC049/// ///TCU 09/06 Q1025 NOSIG
19:30
V
9 °C 10 km+ 4.700 ft 260° 260° 7 kt METAR LFSB 251830Z AUTO 26007KT 9999 -RA OVC047 09/06 Q1024 TEMPO FEW020TCU
19:00
V
9 °C 10 km+ 5.000 ft 260° 260° 9 kt METAR LFSB 251800Z AUTO 26009KT 9999 OVC050 09/06 Q1024 TEMPO FEW020TCU
18:30
V
9 °C 10 km+ 5.600 ft 250° 250° 7 kt METAR LFSB 251730Z AUTO 25007KT 9999 OVC056 09/07 Q1023 TEMPO FEW020TCU
18:00
V
8 °C 10 km+ - 240° 240° 6 kt METAR LFSB 251700Z AUTO 24006KT CAVOK 08/06 Q1023 TEMPO FEW020TCU
17:30
V
8 °C 10 km+ - 240° 240° 8 kt METAR LFSB 251630Z AUTO 24008KT CAVOK 08/06 Q1022 TEMPO FEW020TCU
17:00
V
9 °C 10 km+ 5.600 ft 250° 250° 9 kt METAR LFSB 251600Z AUTO 25009KT 9999 BKN056 09/06 Q1022 TEMPO FEW020TCU
16:30
V
9 °C 10 km+ 5.400 ft 260° 260° 9 kt METAR LFSB 251530Z AUTO 26009KT 9999 BKN054 BKN240 09/06 Q1021 TEMPO FEW020TCU
16:00
V
9 °C 10 km+ 24.000 ft 250° 250° 8 kt METAR LFSB 251500Z AUTO 25008KT 9999 SCT049 SCT058 BKN240 09/06 Q1021 TEMPO FEW020TCU
15:00
V
10 °C 10 km+ - 260° 260° 11 kt METAR LFSB 251400Z AUTO 26011KT 9999 FEW027 10/06 Q1020 TEMPO FEW020TCU
14:30
M
11 °C 10 km+ 2.100 ft 280° 280° 7 kt METAR LFSB 251330Z AUTO 28007KT 9999 BKN021 BKN028 BKN040 11/07 Q1020 TEMPO FEW020TCU
14:00
M
10 °C 10 km+ 1.900 ft 250° 250° 4 kt METAR LFSB 251300Z AUTO 25004KT 9999 OVC019 10/07 Q1020 TEMPO FEW020TCU
13:30
M
10 °C 10 km+ 1.700 ft 280° 280° 8 kt METAR LFSB 251230Z AUTO 28008KT 240V310 9999 BKN017 BKN022 OVC110 10/07 Q1020 TEMPO FEW020TCU
13:00
V
10 °C 10 km+ 4.700 ft 240° 240° 6 kt METAR LFSB 251200Z AUTO 24006KT 9999 SCT015 SCT025 OVC047 10/08 Q1020 TEMPO FEW020TCU
12:30
M
8 °C 10 km+ 1.600 ft 180° 180° 5 kt METAR LFSB 251130Z AUTO 18005KT 9999 OVC016 08/07 Q1019 TEMPO 27010KT BKN010
12:00
I
8 °C 3,4 km 2.700 ft 170° 170° 4 kt METAR LFSB 251100Z AUTO 17004KT 130V250 9000 3400 -RA FEW020 BKN027 BKN033 08/06 Q1019 TEMPO BKN010
11:30
V
8 °C 10 km+ 3.800 ft 130° 130° 4 kt METAR LFSB 251030Z AUTO 13004KT 090V190 9999 FEW031 BKN038 BKN044 08/06 Q1019 TEMPO 27010KT BKN010
11:00
V
7 °C 10 km+ 10.000 ft 130° 130° 5 kt METAR LFSB 251000Z AUTO 13005KT 100V160 9999 SCT040/// SCT066/// BKN100/// //////TCU 07/06 Q1019 BECMG FEW030 BKN050

Wir und Dritte verfolgen dein Internetverhalten auf unserer Website mit Cookies. Wenn du fortfährst, gehen wir davon aus, dass du mit unserer Cookie-Richtlinie einverstanden bist.